Time;durP1;ratioP1;P1;durP2;ratioP2;P2;SDS_P1;SDS_P2;PMS_P1;PMS_P2;Temp;Humidity;BMP_temperature;BMP_pressure;BME280_temperature;BME280_humidity;BME280_pressure;Samples;Min_cycle;Max_cycle;Signal;HPM_P1;HPM_P2
2023/01/13 00:00:49;;;;;;;1023.03;505.33;;;9.70;99.90;;;;;;4788752;30;20130;-83
2023/01/13 00:03:14;;;;;;;1078.67;470.03;;;9.30;99.90;;;;;;4788375;30;20088;-81
2023/01/13 00:05:40;;;;;;;1062.97;512.90;;;8.90;99.90;;;;;;4788464;30;20047;-82
2023/01/13 00:08:06;;;;;;;1084.90;510.53;;;8.50;99.90;;;;;;4772009;30;20051;-82
2023/01/13 00:10:33;;;;;;;1063.80;458.90;;;8.70;99.90;;;;;;4787448;30;20043;-82
2023/01/13 00:12:59;;;;;;;1064.73;511.40;;;8.70;99.90;;;;;;4782784;30;20094;-82
2023/01/13 00:15:25;;;;;;;1083.33;506.97;;;8.80;99.90;;;;;;4787975;30;20082;-82
2023/01/13 00:17:51;;;;;;;1107.17;511.70;;;8.50;99.90;;;;;;4788048;30;20036;-82
2023/01/13 00:20:17;;;;;;;1103.53;510.03;;;9.20;99.90;;;;;;4788268;30;20052;-82
2023/01/13 00:22:42;;;;;;;1099.67;511.43;;;8.50;99.90;;;;;;4771847;30;20458;-82
2023/01/13 00:25:08;;;;;;;1100.73;460.63;;;8.40;99.90;;;;;;4771704;30;20093;-82
2023/01/13 00:27:34;;;;;;;1101.50;510.57;;;8.40;99.90;;;;;;4787397;30;20047;-82
2023/01/13 00:30:00;;;;;;;1097.90;459.83;;;8.80;99.90;;;;;;4788078;30;20047;-82
2023/01/13 00:32:26;;;;;;;1119.20;511.33;;;8.90;99.90;;;;;;4787770;30;20059;-82
2023/01/13 00:34:52;;;;;;;1112.87;509.23;;;8.90;99.90;;;;;;4787568;30;20053;-82
2023/01/13 00:37:18;;;;;;;1108.63;508.70;;;8.30;99.90;;;;;;4788037;30;20569;-83
2023/01/13 00:39:44;;;;;;;1109.77;511.57;;;8.30;99.90;;;;;;4787745;30;20047;-82
2023/01/13 00:44:54;;;;;;;1099.80;506.60;;;8.60;99.90;;;;;;4787733;30;20066;-82
2023/01/13 00:47:22;;;;;;;1082.87;431.23;;;8.40;99.90;;;;;;4756496;30;20499;-81
2023/01/13 00:49:48;;;;;;;1067.63;492.63;;;8.10;99.90;;;;;;4786255;30;20051;-82
2023/01/13 00:52:14;;;;;;;1092.80;506.43;;;8.10;99.90;;;;;;4787768;30;20369;-82
2023/01/13 00:54:40;;;;;;;1087.20;441.73;;;8.90;99.90;;;;;;4786457;29;20055;-82
2023/01/13 00:57:06;;;;;;;1119.40;501.07;;;8.10;99.90;;;;;;4787167;29;20051;-82
2023/01/13 00:59:31;;;;;;;1127.10;495.83;;;8.00;99.90;;;;;;4787538;30;20159;-82
2023/01/13 01:01:57;;;;;;;1096.63;495.20;;;8.50;99.90;;;;;;4787295;30;20129;-82
2023/01/13 01:04:23;;;;;;;1042.43;397.13;;;8.00;99.90;;;;;;4787520;30;20122;-82
2023/01/13 01:06:49;;;;;;;1039.93;491.93;;;7.90;99.90;;;;;;4756212;30;20512;-82
2023/01/13 01:09:18;;;;;;;1020.20;393.23;;;8.00;99.90;;;;;;4766233;30;20051;-82
2023/01/13 01:11:43;;;;;;;888.40;478.80;;;8.50;99.90;;;;;;4756017;30;20296;-81
2023/01/13 01:14:11;;;;;;;961.50;380.00;;;7.90;99.90;;;;;;4787443;30;20138;-81
2023/01/13 01:16:39;;;;;;;1000.23;386.77;;;8.30;99.90;;;;;;4787335;30;20059;-82
2023/01/13 01:19:06;;;;;;;1043.60;492.50;;;8.00;99.90;;;;;;4786946;30;20329;-82
2023/01/13 01:21:32;;;;;;;1013.60;495.97;;;8.70;99.90;;;;;;4787533;30;20309;-82
2023/01/13 01:24:00;;;;;;;1013.63;492.20;;;8.10;99.90;;;;;;4786397;30;20817;-82
2023/01/13 01:26:27;;;;;;;988.80;385.50;;;8.20;99.90;;;;;;4770968;30;20312;-81
2023/01/13 01:28:53;;;;;;;1022.30;388.47;;;7.70;99.90;;;;;;4786628;30;20316;-81
2023/01/13 01:31:26;;;;;;;1037.27;487.70;;;7.70;99.90;;;;;;4787109;30;20315;-82
2023/01/13 01:33:54;;;;;;;1009.63;388.73;;;7.80;99.90;;;;;;4787063;30;20400;-82
2023/01/13 01:36:22;;;;;;;1041.57;389.00;;;7.70;99.90;;;;;;4787362;30;20311;-82
2023/01/13 01:38:48;;;;;;;1061.53;491.03;;;7.80;99.90;;;;;;4786760;30;20309;-81
2023/01/13 01:41:19;;;;;;;1029.00;393.47;;;7.60;99.90;;;;;;4786441;30;20913;-81
2023/01/13 01:43:57;;;;;;;1021.00;395.43;;;8.10;99.90;;;;;;4787025;30;20305;-81
2023/01/13 01:46:26;;;;;;;1016.80;482.07;;;7.50;99.90;;;;;;4780561;30;20654;-82
2023/01/13 01:48:57;;;;;;;1008.77;487.07;;;7.60;99.90;;;;;;4787093;30;20327;-82
2023/01/13 01:51:23;;;;;;;961.27;481.30;;;8.00;99.90;;;;;;4780170;30;20785;-82
2023/01/13 01:53:50;;;;;;;964.07;378.77;;;7.80;99.90;;;;;;4787161;30;20312;-82
2023/01/13 01:56:17;;;;;;;934.57;380.80;;;7.50;99.90;;;;;;4785880;30;20391;-81
2023/01/13 01:58:48;;;;;;;929.80;483.50;;;7.50;99.90;;;;;;4786577;30;20316;-81
2023/01/13 02:01:14;;;;;;;931.10;481.63;;;7.50;99.90;;;;;;4786509;30;20309;-83
2023/01/13 02:03:44;;;;;;;936.70;482.73;;;7.50;99.90;;;;;;4787024;30;20297;-82
2023/01/13 02:06:12;;;;;;;944.17;484.57;;;7.90;99.90;;;;;;4789031;29;20119;-82
2023/01/13 02:08:39;;;;;;;938.57;482.27;;;8.20;99.90;;;;;;4774126;30;20292;-81
2023/01/13 02:12:28;;;;;;;912.77;376.93;;;7.80;99.90;;;;;;4790101;30;20304;-81
2023/01/13 02:13:51;;;;;;;888.28;478.30;;;7.60;99.90;;;;;;4790155;29;20390;-82
2023/01/13 02:16:23;;;;;;;962.73;481.70;;;7.70;99.90;;;;;;4789285;30;20126;-81
2023/01/13 02:19:10;;;;;;;941.10;481.90;;;7.60;99.90;;;;;;4790258;30;20500;-82
2023/01/13 02:22:21;;;;;;;921.30;479.17;;;7.60;99.90;;;;;;4784331;30;20308;-82
2023/01/13 02:25:25;;;;;;;921.03;375.83;;;7.60;99.90;;;;;;4730269;30;20299;-81
2023/01/13 02:28:05;;;;;;;925.27;480.67;;;7.60;99.90;;;;;;4732242;30;20322;-81
2023/01/13 02:33:49;;;;;;;921.47;482.33;;;7.70;99.90;;;;;;4735132;30;20326;-82
2023/01/13 02:36:34;;;;;;;923.10;479.83;;;8.20;99.90;;;;;;4734909;30;20924;-81
2023/01/13 02:39:10;;;;;;;914.80;371.30;;;7.70;99.90;;;;;;4735072;30;20824;-82
2023/01/13 02:44:37;;;;;;;905.63;376.87;;;7.80;99.90;;;;;;4734719;30;20726;-82
2023/01/13 02:47:19;;;;;;;899.23;478.57;;;7.80;99.90;;;;;;4734829;30;20378;-82
2023/01/13 02:49:49;;;;;;;868.40;471.87;;;8.20;99.90;;;;;;4734491;30;20275;-82
2023/01/13 02:52:29;;;;;;;843.97;468.97;;;9.00;99.90;;;;;;4734303;30;20832;-82
2023/01/13 02:55:02;;;;;;;1084.33;488.37;;;7.80;99.90;;;;;;4749931;29;20732;-82
2023/01/13 02:57:31;;;;;;;1140.77;426.90;;;8.50;99.90;;;;;;4788809;30;20307;-83
2023/01/13 02:59:57;;;;;;;1154.63;503.37;;;8.10;99.90;;;;;;4789506;30;20313;-82
2023/01/13 03:02:24;;;;;;;1106.93;401.27;;;7.80;99.90;;;;;;4789623;30;20296;-82
2023/01/13 03:04:55;;;;;;;904.53;377.27;;;7.90;99.90;;;;;;4789198;30;20047;-82
2023/01/13 03:07:42;;;;;;;1177.80;453.50;;;7.90;99.90;;;;;;4789254;30;20335;-81
2023/01/13 03:10:26;;;;;;;1129.27;442.40;;;7.90;99.90;;;;;;4768888;30;20059;-82
2023/01/13 03:13:19;;;;;;;1126.67;501.57;;;7.80;99.90;;;;;;4783297;30;20083;-82
2023/01/13 03:15:56;;;;;;;1122.40;498.00;;;8.10;99.90;;;;;;4789376;30;20059;-82
2023/01/13 03:18:40;;;;;;;1097.03;416.30;;;7.80;99.90;;;;;;4788025;30;20300;-82
2023/01/13 03:21:35;;;;;;;1089.77;413.37;;;7.80;99.90;;;;;;4768472;30;20407;-83
2023/01/13 03:24:22;;;;;;;1110.07;488.40;;;8.50;99.90;;;;;;4783301;30;20308;-83
2023/01/13 03:27:11;;;;;;;1105.30;484.60;;;7.90;99.90;;;;;;4788965;30;20305;-83
2023/01/13 03:29:41;;;;;;;1083.47;397.17;;;7.90;99.90;;;;;;4722764;30;20392;-81
2023/01/13 03:32:25;;;;;;;1119.43;487.60;;;8.00;99.90;;;;;;4719944;30;20299;-82
2023/01/13 03:35:02;;;;;;;1118.00;488.00;;;8.30;99.90;;;;;;4712403;30;20338;-82
2023/01/13 03:37:35;;;;;;;1121.20;487.93;;;7.90;99.90;;;;;;4725542;30;20318;-82
2023/01/13 03:40:07;;;;;;;1110.13;488.73;;;8.70;99.90;;;;;;4720232;30;20311;-81
2023/01/13 03:42:38;;;;;;;1070.93;393.43;;;7.90;99.90;;;;;;4724369;30;20310;-82
2023/01/13 03:45:14;;;;;;;1064.50;485.00;;;8.00;99.90;;;;;;4720492;30;20748;-82
2023/01/13 03:47:43;;;;;;;1029.43;391.07;;;8.50;99.90;;;;;;4723710;30;20817;-82
2023/01/13 03:50:32;;;;;;;1073.53;398.37;;;8.70;99.90;;;;;;4726401;30;20310;-82
2023/01/13 03:53:05;;;;;;;1056.70;483.57;;;8.00;99.90;;;;;;4712288;30;20381;-82
2023/01/13 03:55:35;;;;;;;1053.00;390.53;;;9.30;99.90;;;;;;4718359;30;20327;-82
2023/01/13 03:58:32;;;;;;;1081.27;487.87;;;8.80;99.90;;;;;;4723281;30;20343;-81
2023/01/13 04:01:33;;;;;;;1106.53;491.60;;;8.10;99.90;;;;;;4710655;30;20336;-82
2023/01/13 04:04:01;;;;;;;1089.00;485.03;;;8.00;99.90;;;;;;4694806;30;20689;-83
2023/01/13 04:07:17;;;;;;;1077.37;399.30;;;9.00;99.90;;;;;;4722205;30;20683;-84
2023/01/13 04:09:49;;;;;;;1039.33;390.03;;;8.10;99.90;;;;;;4713579;30;20327;-82
2023/01/13 04:12:59;;;;;;;1095.50;494.43;;;8.10;99.90;;;;;;4715424;30;20307;-84
2023/01/13 04:15:28;;;;;;;1029.13;397.97;;;8.10;99.90;;;;;;4681018;30;20309;-82
2023/01/13 04:17:54;;;;;;;957.57;484.77;;;8.30;99.90;;;;;;4681031;30;20297;-82
2023/01/13 04:20:20;;;;;;;921.57;482.27;;;8.10;99.90;;;;;;4666878;30;20841;-82
2023/01/13 04:22:46;;;;;;;894.33;373.07;;;8.80;99.90;;;;;;4681023;30;20309;-82
2023/01/13 04:25:11;;;;;;;902.10;381.17;;;8.10;99.90;;;;;;4680978;30;20671;-82
2023/01/13 04:27:37;;;;;;;912.50;385.63;;;8.10;99.90;;;;;;4681008;30;20085;-82
2023/01/13 04:30:05;;;;;;;923.60;485.80;;;8.10;99.90;;;;;;4680625;30;20461;-83
2023/01/13 04:32:31;;;;;;;880.37;374.70;;;8.10;99.90;;;;;;4681079;30;20057;-81
2023/01/13 04:34:56;;;;;;;913.60;388.67;;;8.50;99.90;;;;;;4680564;30;20942;-82
2023/01/13 04:37:22;;;;;;;1074.77;590.70;;;8.00;99.90;;;;;;4680787;30;20054;-80
2023/01/13 04:39:48;;;;;;;1215.90;477.27;;;8.00;99.90;;;;;;4680814;30;20058;-81
2023/01/13 04:42:13;;;;;;;1159.50;486.80;;;8.50;99.90;;;;;;4680831;30;20148;-83
2023/01/13 04:44:39;;;;;;;1030.53;422.13;;;8.90;99.90;;;;;;4682219;30;20065;-82
2023/01/13 04:47:05;;;;;;;1135.60;490.60;;;8.80;99.90;;;;;;4715336;30;20483;-82
2023/01/13 04:49:30;;;;;;;1122.47;408.27;;;8.10;99.90;;;;;;4714962;30;20146;-82
2023/01/13 04:51:56;;;;;;;1146.53;495.63;;;8.10;99.90;;;;;;4757167;30;20095;-82
2023/01/13 04:54:21;;;;;;;1102.77;424.97;;;8.90;99.90;;;;;;4787779;30;20081;-82
2023/01/13 04:56:47;;;;;;;1029.83;413.50;;;8.90;99.90;;;;;;4786992;30;20066;-82
2023/01/13 04:59:13;;;;;;;891.60;380.80;;;8.20;99.90;;;;;;4786941;30;20147;-82
2023/01/13 05:01:39;;;;;;;810.77;363.77;;;8.20;99.90;;;;;;4786979;30;20047;-82
2023/01/13 05:04:06;;;;;;;800.83;362.30;;;8.40;99.90;;;;;;4787559;30;20059;-82
2023/01/13 05:06:32;;;;;;;849.53;497.97;;;9.00;99.90;;;;;;4786975;30;20066;-82
2023/01/13 05:08:58;;;;;;;853.20;401.90;;;8.70;99.90;;;;;;4771480;30;20655;-82
2023/01/13 05:16:59;;;;;;;1289.77;473.87;;;8.30;99.90;;;;;;4787082;30;20070;-83
2023/01/13 05:19:37;;;;;;;1242.70;513.93;;;8.30;99.90;;;;;;4787385;30;20093;-84
2023/01/13 05:27:33;;;;;;;1233.23;510.63;;;8.20;99.90;;;;;;4722475;30;19927;-83
2023/01/13 05:29:59;;;;;;;1203.47;509.30;;;8.30;99.90;;;;;;4710491;30;20210;-82
2023/01/13 05:32:29;;;;;;;1171.47;455.47;;;8.70;99.90;;;;;;4718304;30;20177;-83
2023/01/13 05:34:55;;;;;;;1158.37;451.67;;;8.30;99.90;;;;;;4706436;30;20060;-83
2023/01/13 05:37:21;;;;;;;1171.57;446.73;;;8.30;99.90;;;;;;4707162;30;20056;-83
2023/01/13 05:45:15;;;;;;;1201.33;510.50;;;9.60;99.90;;;;;;4713002;30;20510;-84
2023/01/13 05:47:41;;;;;;;1181.67;456.43;;;8.40;99.90;;;;;;4707435;30;20139;-83
2023/01/13 05:50:08;;;;;;;1198.37;510.87;;;8.30;99.90;;;;;;4720820;30;20061;-83
2023/01/13 05:52:33;;;;;;;1188.70;467.80;;;8.40;99.90;;;;;;4726377;30;20048;-82
2023/01/13 05:54:59;;;;;;;1202.00;509.23;;;8.40;99.90;;;;;;4706967;30;20516;-83
2023/01/13 05:57:25;;;;;;;1181.07;452.30;;;8.40;99.90;;;;;;4721517;30;20140;-82
2023/01/13 05:59:50;;;;;;;1216.70;512.63;;;9.50;99.90;;;;;;4721679;30;20056;-82
2023/01/13 06:02:16;;;;;;;1191.17;457.33;;;8.40;99.90;;;;;;4767677;30;20126;-82
2023/01/13 06:04:42;;;;;;;1230.07;517.67;;;8.30;99.90;;;;;;4786889;30;20051;-83
2023/01/13 06:07:07;;;;;;;1168.40;448.87;;;8.40;99.90;;;;;;4786080;30;20052;-82
2023/01/13 06:09:33;;;;;;;1170.83;445.40;;;8.40;99.90;;;;;;4770411;30;20035;-84
2023/01/13 06:11:59;;;;;;;1179.67;452.50;;;8.90;99.90;;;;;;4785969;30;20062;-83
2023/01/13 06:14:24;;;;;;;1173.70;442.10;;;8.90;99.90;;;;;;4786161;30;20043;-83
2023/01/13 06:16:50;;;;;;;1180.97;448.57;;;8.40;99.90;;;;;;4786388;30;20130;-83
2023/01/13 06:19:16;;;;;;;1218.13;505.33;;;8.50;99.90;;;;;;4786599;30;20126;-83
2023/01/13 06:21:43;;;;;;;1185.73;447.10;;;8.70;99.90;;;;;;4786573;30;20492;-84
2023/01/13 06:24:09;;;;;;;1180.47;447.47;;;8.40;99.90;;;;;;4786509;30;20437;-84
2023/01/13 06:26:38;;;;;;;1177.33;445.77;;;8.40;99.90;;;;;;4786559;30;20040;-83
2023/01/13 06:29:05;;;;;;;1196.37;440.53;;;9.10;99.90;;;;;;4785911;30;20051;-84
2023/01/13 06:31:32;;;;;;;1238.67;506.93;;;8.60;99.90;;;;;;4786441;30;20082;-84
2023/01/13 06:34:09;;;;;;;1244.77;506.33;;;8.20;99.90;;;;;;4786324;30;20130;-83
2023/01/13 06:36:40;;;;;;;1241.17;504.10;;;9.00;99.90;;;;;;4786959;30;20420;-84
2023/01/13 06:39:07;;;;;;;1201.87;425.60;;;8.40;99.90;;;;;;4785794;30;20527;-84
2023/01/13 06:44:18;;;;;;;1250.37;509.03;;;8.20;99.90;;;;;;4785746;30;20653;-84
2023/01/13 06:46:44;;;;;;;1153.37;407.87;;;9.00;99.90;;;;;;4786691;30;20830;-84
2023/01/13 06:49:10;;;;;;;1076.20;424.30;;;8.50;99.90;;;;;;4786197;30;20324;-85
2023/01/13 06:51:36;;;;;;;902.03;495.23;;;8.20;99.90;;;;;;4786364;29;20325;-85
2023/01/13 06:54:01;;;;;;;1027.77;508.97;;;8.10;99.90;;;;;;4789620;30;20043;-85
2023/01/13 06:56:27;;;;;;;953.40;484.07;;;8.10;99.90;;;;;;4788928;30;20484;-85
2023/01/13 06:58:53;;;;;;;989.00;397.33;;;8.00;99.90;;;;;;4789241;30;20091;-84
2023/01/13 07:01:18;;;;;;;1005.57;388.73;;;8.10;99.90;;;;;;4773629;30;20086;-83
2023/01/13 07:03:44;;;;;;;1003.93;390.60;;;8.50;99.90;;;;;;4789234;30;20046;-85
2023/01/13 07:06:10;;;;;;;1012.30;399.40;;;7.90;99.90;;;;;;4789387;30;20051;-82
2023/01/13 07:08:35;;;;;;;1244.33;547.87;;;7.90;99.90;;;;;;4789427;30;20050;-83
2023/01/13 07:11:01;;;;;;;1211.83;476.77;;;7.90;99.90;;;;;;4789289;30;20043;-83
2023/01/13 07:16:11;;;;;;;1175.47;432.30;;;8.70;99.90;;;;;;4789539;30;20062;-84
2023/01/13 07:18:38;;;;;;;1188.00;498.63;;;7.90;99.90;;;;;;4789059;30;20047;-81
2023/01/13 07:21:09;;;;;;;1217.87;504.03;;;8.70;99.90;;;;;;4789038;30;20047;-83
2023/01/13 07:23:39;;;;;;;1191.73;444.90;;;7.80;99.90;;;;;;4782382;30;20417;-84
2023/01/13 07:26:07;;;;;;;1212.33;503.53;;;8.20;99.90;;;;;;4785498;30;20047;-82
2023/01/13 07:28:33;;;;;;;1167.00;447.27;;;8.50;99.90;;;;;;4788435;29;20070;-82
2023/01/13 07:30:59;;;;;;;1194.87;511.57;;;7.60;99.90;;;;;;4789268;30;20082;-83
2023/01/13 07:33:25;;;;;;;1170.00;452.87;;;8.40;99.90;;;;;;4788805;30;20441;-83
2023/01/13 07:35:59;;;;;;;1157.23;445.53;;;8.10;99.90;;;;;;4789208;30;20046;-84
2023/01/13 07:38:25;;;;;;;1172.67;450.53;;;7.50;99.90;;;;;;4788508;30;20061;-82
2023/01/13 07:40:51;;;;;;;1201.77;508.13;;;7.40;99.90;;;;;;4772983;30;20396;-84
2023/01/13 07:43:32;;;;;;;1174.63;449.43;;;7.40;99.90;;;;;;4788445;30;20058;-83
2023/01/13 07:46:03;;;;;;;1173.63;453.50;;;7.40;99.90;;;;;;4788605;30;20112;-83
2023/01/13 07:48:30;;;;;;;1180.03;447.40;;;7.40;99.90;;;;;;4788283;30;20058;-84
2023/01/13 07:50:59;;;;;;;1207.73;504.37;;;7.40;99.90;;;;;;4788742;30;20051;-83
2023/01/13 07:53:25;;;;;;;1215.63;508.00;;;7.40;99.90;;;;;;4788367;30;20047;-83
2023/01/13 07:55:55;;;;;;;1174.27;442.63;;;8.20;99.90;;;;;;4788350;30;20052;-83
2023/01/13 07:58:21;;;;;;;1174.60;445.37;;;7.40;99.90;;;;;;4787157;30;20063;-83
2023/01/13 08:00:47;;;;;;;1172.90;443.73;;;7.40;99.90;;;;;;4787904;30;20554;-82
2023/01/13 08:03:12;;;;;;;1202.20;500.70;;;7.60;99.90;;;;;;4788018;29;20473;-83
2023/01/13 08:05:38;;;;;;;1184.47;467.13;;;8.40;99.90;;;;;;4787988;30;20116;-83
2023/01/13 08:08:04;;;;;;;1218.43;499.63;;;7.50;99.90;;;;;;4788224;30;20055;-82
2023/01/13 08:10:30;;;;;;;1199.50;447.87;;;7.40;99.90;;;;;;4787398;30;20134;-84
2023/01/13 08:15:39;;;;;;;1188.20;443.40;;;7.40;99.90;;;;;;4788248;30;20067;-83
2023/01/13 08:18:05;;;;;;;1207.10;448.17;;;7.50;99.90;;;;;;4788164;30;20121;-83
2023/01/13 08:20:31;;;;;;;1192.97;442.30;;;7.50;99.90;;;;;;4787761;30;20061;-81
2023/01/13 08:22:58;;;;;;;1199.87;502.40;;;7.60;99.90;;;;;;4788012;29;20047;-83
2023/01/13 08:25:25;;;;;;;1214.70;497.13;;;7.60;99.90;;;;;;4787798;30;20062;-83
2023/01/13 08:27:51;;;;;;;1240.93;500.47;;;8.50;99.90;;;;;;4788417;30;20112;-82
2023/01/13 08:30:17;;;;;;;1237.00;502.57;;;8.30;99.90;;;;;;4788061;30;20051;-81
2023/01/13 08:32:43;;;;;;;1217.17;449.30;;;7.70;99.90;;;;;;4788666;30;20086;-83
2023/01/13 08:35:09;;;;;;;1238.37;507.73;;;7.70;99.90;;;;;;4772492;30;20051;-81
2023/01/13 08:37:35;;;;;;;1207.20;445.33;;;8.40;99.90;;;;;;4788652;30;20062;-83
2023/01/13 08:40:01;;;;;;;1269.40;454.10;;;7.60;99.90;;;;;;4788632;30;20488;-82
2023/01/13 08:42:27;;;;;;;1243.03;451.60;;;7.70;99.90;;;;;;4772253;30;20500;-83
2023/01/13 08:44:53;;;;;;;1233.67;507.30;;;7.80;99.90;;;;;;4788373;30;20039;-84
2023/01/13 08:47:19;;;;;;;1240.03;512.60;;;7.70;99.90;;;;;;4771930;30;20051;-82
2023/01/13 08:49:45;;;;;;;1244.70;514.70;;;8.20;99.90;;;;;;4788239;30;20193;-85
2023/01/13 08:52:11;;;;;;;1239.27;510.47;;;7.80;99.90;;;;;;4788272;30;20522;-83
2023/01/13 08:54:38;;;;;;;1216.83;457.60;;;8.00;99.90;;;;;;4787782;29;20192;-81
2023/01/13 08:57:04;;;;;;;1252.13;511.73;;;7.80;99.90;;;;;;4788390;30;20094;-83
2023/01/13 08:59:30;;;;;;;1306.87;509.47;;;8.90;99.90;;;;;;4788255;29;20063;-84
2023/01/13 09:01:55;;;;;;;1220.80;444.50;;;7.80;99.90;;;;;;4788084;30;20416;-85
2023/01/13 09:04:23;;;;;;;1276.80;507.93;;;8.40;99.90;;;;;;4788099;30;20408;-82
2023/01/13 09:06:50;;;;;;;1250.20;444.60;;;7.80;99.90;;;;;;4788166;30;20129;-82
2023/01/13 09:09:16;;;;;;;1236.37;446.67;;;7.80;99.90;;;;;;4771812;30;20149;-83
2023/01/13 09:14:31;;;;;;;1174.10;462.37;;;7.70;99.90;;;;;;4770648;30;20532;-84
2023/01/13 09:16:58;;;;;;;1125.07;421.37;;;7.70;99.90;;;;;;4787199;30;20112;-84
2023/01/13 09:19:24;;;;;;;1192.03;499.50;;;7.70;99.90;;;;;;4787884;30;20289;-83
2023/01/13 09:21:51;;;;;;;1198.80;490.67;;;7.60;99.90;;;;;;4787815;30;20141;-82
2023/01/13 09:24:17;;;;;;;1109.67;522.67;;;8.80;99.90;;;;;;4776374;29;20304;-88
2023/01/13 09:26:43;;;;;;;1206.37;524.67;;;7.50;99.90;;;;;;4789374;29;20300;-83
2023/01/13 09:29:09;;;;;;;1130.03;419.43;;;7.90;99.90;;;;;;4805636;29;20076;-82
2023/01/13 09:31:35;;;;;;;1187.20;504.83;;;7.50;99.90;;;;;;4777414;30;20044;-85
2023/01/13 09:36:48;;;;;;;1162.93;499.00;;;7.90;99.90;;;;;;4769796;30;20060;-83
2023/01/13 09:39:14;;;;;;;1334.77;513.40;;;8.00;99.90;;;;;;4769856;30;20639;-84
2023/01/13 09:44:42;;;;;;;;;;;8.50;99.90;;;;;;4769854;30;20134;-82
2023/01/13 09:47:22;;;;;;;1204.37;500.00;;;7.40;99.90;;;;;;4769172;30;19926;-82
2023/01/13 09:49:48;;;;;;;1197.20;423.60;;;7.40;99.90;;;;;;4769410;30;20306;-82
2023/01/13 09:52:21;;;;;;;1209.17;439.23;;;7.40;99.90;;;;;;4769330;30;20055;-82
2023/01/13 09:55:01;;;;;;;1208.77;442.10;;;7.40;99.90;;;;;;4753545;30;20381;-82
2023/01/13 09:57:31;;;;;;;1218.20;446.93;;;8.30;99.90;;;;;;4769378;30;20700;-83
2023/01/13 09:59:57;;;;;;;1258.47;439.07;;;8.40;99.90;;;;;;4769691;30;20062;-82
2023/01/13 10:02:52;;;;;;;1256.83;513.57;;;7.40;99.90;;;;;;4769685;30;20128;-83
2023/01/13 10:05:25;;;;;;;1319.03;503.60;;;7.40;99.90;;;;;;4753657;30;20087;-82
2023/01/13 10:07:57;;;;;;;1224.70;447.13;;;7.40;99.90;;;;;;4769333;30;20142;-83
2023/01/13 10:10:37;;;;;;;1281.07;504.23;;;7.50;99.90;;;;;;4769799;30;20205;-82
2023/01/13 10:13:13;;;;;;;1226.83;455.27;;;7.70;99.90;;;;;;4769344;30;20062;-84
2023/01/13 10:15:44;;;;;;;1222.57;450.93;;;8.60;99.90;;;;;;4753245;30;20040;-82
2023/01/13 10:18:27;;;;;;;1267.00;511.20;;;7.50;99.90;;;;;;4769425;30;20125;-81
2023/01/13 10:21:15;;;;;;;1287.33;504.60;;;7.40;99.90;;;;;;4754605;30;20047;-85
2023/01/13 10:24:12;;;;;;;1227.10;454.97;;;7.50;99.90;;;;;;4769214;30;20063;-82
2023/01/13 10:27:04;;;;;;;1227.60;447.70;;;7.50;99.90;;;;;;4747700;30;20501;-80
2023/01/13 10:29:31;;;;;;;1246.10;451.03;;;7.50;99.90;;;;;;4772093;30;20078;-80
2023/01/13 10:31:59;;;;;;;1295.23;508.33;;;7.50;99.90;;;;;;4772735;30;20135;-79
2023/01/13 10:34:26;;;;;;;1300.97;511.17;;;7.50;99.90;;;;;;4771680;30;20051;-79
2023/01/13 10:37:05;;;;;;;1239.70;447.13;;;7.60;99.90;;;;;;4781625;30;20793;-80
2023/01/13 10:39:42;;;;;;;1322.53;502.80;;;8.10;99.90;;;;;;4790241;30;20497;-80
2023/01/13 10:42:17;;;;;;;1265.40;505.13;;;8.30;99.90;;;;;;4790438;30;20500;-80
2023/01/13 10:44:58;;;;;;;1212.43;454.13;;;7.80;99.90;;;;;;4784029;30;20048;-83
2023/01/13 10:47:30;;;;;;;1222.00;457.33;;;7.70;99.90;;;;;;4772374;30;20063;-88
2023/01/13 10:50:00;;;;;;;1256.80;502.27;;;7.70;99.90;;;;;;4755583;30;20416;-80
2023/01/13 10:52:29;;;;;;;1243.00;462.80;;;8.20;99.90;;;;;;4772197;30;20047;-80
2023/01/13 10:54:56;;;;;;;1265.70;511.37;;;7.90;99.90;;;;;;4772450;30;20060;-80
2023/01/13 10:57:24;;;;;;;1255.30;508.90;;;8.50;99.90;;;;;;4772415;30;20066;-79
2023/01/13 10:59:51;;;;;;;1235.53;469.87;;;7.80;99.90;;;;;;4772296;30;20059;-81
2023/01/13 11:02:29;;;;;;;1307.23;522.07;;;8.20;99.90;;;;;;4772375;30;20130;-80
2023/01/13 11:04:55;;;;;;;1286.03;525.43;;;7.90;99.90;;;;;;4772081;30;20144;-80
2023/01/13 11:07:30;;;;;;;1332.17;507.73;;;8.10;99.90;;;;;;4772279;30;20072;-80
2023/01/13 11:10:13;;;;;;;1328.53;522.47;;;7.90;99.90;;;;;;4772198;30;20401;-81
2023/01/13 11:13:02;;;;;;;1254.30;456.63;;;8.90;99.90;;;;;;4755791;30;20093;-80
2023/01/13 11:16:02;;;;;;;1249.70;469.27;;;7.90;99.90;;;;;;4755010;30;20071;-80
2023/01/13 11:18:39;;;;;;;1226.03;474.73;;;7.90;99.90;;;;;;4771286;30;20078;-81
2023/01/13 11:21:14;;;;;;;1234.93;472.60;;;7.90;99.90;;;;;;4755176;30;20094;-83
2023/01/13 11:23:47;;;;;;;1283.22;525.22;;;7.90;99.90;;;;;;4769527;30;20145;-81
2023/01/13 11:26:39;;;;;;;1290.70;512.97;;;7.90;99.90;;;;;;4770420;29;20539;-81
2023/01/13 11:29:16;;;;;;;1243.50;466.73;;;8.80;99.90;;;;;;4766222;30;20039;-81
2023/01/13 11:31:47;;;;;;;1297.57;512.33;;;8.00;99.90;;;;;;4754871;30;20044;-80
2023/01/13 11:34:34;;;;;;;1230.30;462.73;;;9.20;99.90;;;;;;4769811;30;20047;-82
2023/01/13 11:37:05;;;;;;;1271.67;516.67;;;8.10;99.90;;;;;;4770992;30;20139;-80
2023/01/13 11:39:42;;;;;;;1282.33;512.13;;;8.10;99.90;;;;;;4770210;30;20051;-81
2023/01/13 11:42:28;;;;;;;1262.43;465.13;;;9.00;99.90;;;;;;4771384;30;20044;-82
2023/01/13 11:45:12;;;;;;;1264.90;470.58;;;8.10;99.90;;;;;;4770612;30;20416;-81
2023/01/13 11:47:38;;;;;;;1265.23;460.63;;;8.10;99.90;;;;;;4765850;30;20566;-81
2023/01/13 11:50:13;;;;;;;1261.73;461.90;;;8.10;99.90;;;;;;4770505;30;20083;-82
2023/01/13 11:53:16;;;;;;;1263.63;463.10;;;8.10;99.90;;;;;;4755115;30;20527;-81
2023/01/13 11:56:07;;;;;;;1306.87;513.27;;;8.10;99.90;;;;;;4765640;30;20044;-81
2023/01/13 11:58:41;;;;;;;1269.70;467.70;;;8.10;99.90;;;;;;4769915;30;20060;-81
2023/01/13 12:01:18;;;;;;;1250.80;516.03;;;8.40;99.90;;;;;;4770855;30;20377;-84
2023/01/13 12:04:11;;;;;;;1216.60;466.30;;;8.20;99.90;;;;;;4770313;30;20570;-82
2023/01/13 12:06:40;;;;;;;1227.13;463.27;;;8.10;99.90;;;;;;4770173;30;20086;-82
2023/01/13 12:09:10;;;;;;;1261.27;515.17;;;9.20;99.90;;;;;;4770330;30;20446;-85
2023/01/13 12:14:45;;;;;;;1245.63;463.07;;;8.20;99.90;;;;;;4770366;30;20179;-83
2023/01/13 12:17:52;;;;;;;1221.37;457.57;;;8.20;99.90;;;;;;4754557;30;20055;-83
2023/01/13 12:20:38;;;;;;;1222.00;452.77;;;8.10;99.90;;;;;;4710803;30;20146;-83
2023/01/13 12:23:16;;;;;;;1229.30;458.70;;;8.10;99.90;;;;;;4723602;30;20052;-85
2023/01/13 12:25:50;;;;;;;1252.67;459.97;;;8.90;99.90;;;;;;4717057;30;20124;-82
2023/01/13 12:28:24;;;;;;;1213.33;454.13;;;8.70;99.90;;;;;;4713131;30;20403;-87
2023/01/13 12:30:56;;;;;;;1213.83;457.73;;;9.10;99.90;;;;;;4715018;30;20098;-83
2023/01/13 12:33:43;;;;;;;1256.27;508.47;;;8.80;99.90;;;;;;4715093;30;20065;-83
2023/01/13 12:36:30;;;;;;;1271.67;509.23;;;8.60;99.90;;;;;;4712032;30;20136;-82
2023/01/13 12:38:58;;;;;;;1255.37;455.03;;;8.20;99.90;;;;;;4705270;30;20057;-84
2023/01/13 12:44:15;;;;;;;1237.10;455.73;;;8.40;99.90;;;;;;4706977;30;20041;-83
2023/01/13 12:44:27;;;;;;;1274.23;503.30;;;8.20;99.90;;;;;;4714400;30;20059;-82
2023/01/13 12:46:55;;;;;;;1247.10;453.67;;;8.20;99.90;;;;;;4715068;30;20057;-82
2023/01/13 12:49:21;;;;;;;1302.37;506.93;;;8.10;99.90;;;;;;4707091;30;21489;-82
2023/01/13 12:51:55;;;;;;;1308.00;511.93;;;8.10;99.90;;;;;;4712983;30;20057;-83
2023/01/13 12:54:36;;;;;;;1272.77;464.67;;;8.10;99.90;;;;;;4714202;30;20065;-84
2023/01/13 12:57:20;;;;;;;1254.87;460.83;;;8.20;99.90;;;;;;4752619;30;20066;-82
2023/01/13 12:59:58;;;;;;;1225.30;449.70;;;8.60;99.90;;;;;;4764270;30;20043;-83
2023/01/13 13:02:25;;;;;;;1239.73;456.50;;;9.40;99.90;;;;;;4768625;30;20550;-84
2023/01/13 13:04:54;;;;;;;1230.30;457.90;;;8.20;99.90;;;;;;4770040;30;20096;-82
2023/01/13 13:07:29;;;;;;;1220.63;457.40;;;9.40;99.90;;;;;;4769330;30;20068;-84
2023/01/13 13:10:13;;;;;;;1226.70;455.73;;;8.50;99.90;;;;;;4769854;30;20452;-83
2023/01/13 13:15:27;;;;;;;1231.00;456.27;;;8.90;99.90;;;;;;4769190;30;20094;-83
2023/01/13 13:18:27;;;;;;;1265.37;509.20;;;8.50;99.90;;;;;;4769493;30;20039;-83
2023/01/13 13:21:09;;;;;;;1276.23;509.23;;;8.60;99.90;;;;;;4714528;30;20073;-83